Time;durP1;ratioP1;P1;durP2;ratioP2;P2;SDS_P1;SDS_P2;PMS_P1;PMS_P2;Temp;Humidity;BMP_temperature;BMP_pressure;BME280_temperature;BME280_humidity;BME280_pressure;Samples;Min_cycle;Max_cycle;Signal;HPM_P1;HPM_P2
2021/07/13 00:00:43;;;;;;;10.50;9.07;;;19.40;99.90;;;;;;6038604;29;20201;-82
2021/07/13 00:03:45;;;;;;;9.93;9.00;;;19.30;99.90;;;;;;6055820;29;20185;-82
2021/07/13 00:06:48;;;;;;;9.63;8.63;;;19.30;99.90;;;;;;6054528;29;20206;-82
2021/07/13 00:09:50;;;;;;;10.47;9.03;;;19.30;99.90;;;;;;6055842;29;20205;-83
2021/07/13 00:12:53;;;;;;;9.63;8.63;;;19.20;99.90;;;;;;6038848;29;20205;-82
2021/07/13 00:15:56;;;;;;;9.87;8.93;;;19.10;99.90;;;;;;6055284;29;20559;-82
2021/07/13 00:18:59;;;;;;;14.37;12.87;;;18.90;99.90;;;;;;6055527;29;20245;-81
2021/07/13 00:22:02;;;;;;;10.43;9.53;;;18.90;99.90;;;;;;6053911;29;20197;-82
2021/07/13 00:25:06;;;;;;;9.70;8.80;;;19.00;99.90;;;;;;6054253;29;20190;-83
2021/07/13 00:28:08;;;;;;;10.43;8.90;;;19.00;99.90;;;;;;6054259;29;20208;-82
2021/07/13 00:31:10;;;;;;;11.50;9.63;;;19.00;99.90;;;;;;6053523;29;20205;-82
2021/07/13 00:34:13;;;;;;;10.90;9.90;;;19.00;99.90;;;;;;6054989;29;20218;-82
2021/07/13 00:37:15;;;;;;;10.83;9.73;;;18.90;99.90;;;;;;6053670;29;20215;-81
2021/07/13 00:40:20;;;;;;;9.50;8.60;;;18.80;99.90;;;;;;6054047;29;20577;-83
2021/07/13 00:43:23;;;;;;;9.43;8.53;;;18.70;99.90;;;;;;6053860;29;20182;-83
2021/07/13 00:46:25;;;;;;;9.53;8.73;;;18.70;99.90;;;;;;6053853;29;20216;-82
2021/07/13 00:49:27;;;;;;;10.37;9.37;;;18.80;99.90;;;;;;6053902;29;20194;-82
2021/07/13 00:52:30;;;;;;;9.73;8.73;;;18.70;99.90;;;;;;6053312;29;20234;-81
2021/07/13 00:55:32;;;;;;;9.77;8.90;;;18.60;99.90;;;;;;6053689;29;20205;-81
2021/07/13 00:58:34;;;;;;;11.20;10.20;;;18.50;99.90;;;;;;6053474;29;20272;-80
2021/07/13 01:01:37;;;;;;;10.67;9.67;;;18.60;99.90;;;;;;6053664;29;20208;-82
2021/07/13 01:04:44;;;;;;;10.33;9.43;;;18.50;99.90;;;;;;6053601;29;20201;-81
2021/07/13 01:08:23;;;;;;;9.73;8.87;;;18.50;99.90;;;;;;6054686;29;20185;-82
2021/07/13 01:11:52;;;;;;;10.67;9.67;;;18.50;99.90;;;;;;6053713;29;20215;-82
2021/07/13 01:14:57;;;;;;;15.50;13.97;;;18.40;99.90;;;;;;6057913;29;20212;-81
2021/07/13 01:18:15;;;;;;;11.17;10.07;;;18.50;99.90;;;;;;6057861;29;20260;-81
2021/07/13 01:21:39;;;;;;;10.50;9.60;;;18.50;99.90;;;;;;6057779;29;20194;-81
2021/07/13 01:25:11;;;;;;;10.30;9.30;;;18.40;99.90;;;;;;6058033;29;20202;-80
2021/07/13 01:28:17;;;;;;;10.43;9.43;;;18.30;99.90;;;;;;6058932;29;20193;-82
2021/07/13 01:31:21;;;;;;;10.60;9.07;;;18.40;99.90;;;;;;6057893;29;20284;-82
2021/07/13 01:34:28;;;;;;;10.03;9.13;;;18.40;99.90;;;;;;6057622;29;20225;-81
2021/07/13 01:37:32;;;;;;;11.07;9.97;;;18.30;99.90;;;;;;6057432;29;20593;-82
2021/07/13 01:40:34;;;;;;;10.87;9.87;;;18.20;99.90;;;;;;6058887;29;20312;-81
2021/07/13 01:43:38;;;;;;;9.47;8.60;;;18.20;99.90;;;;;;6041798;29;20571;-81
2021/07/13 01:46:41;;;;;;;10.00;9.10;;;18.20;99.90;;;;;;6058775;29;20280;-81
2021/07/13 01:49:45;;;;;;;10.20;9.27;;;18.20;99.90;;;;;;6057648;29;20201;-79
2021/07/13 01:52:48;;;;;;;10.30;9.40;;;18.30;99.90;;;;;;6057210;29;20230;-82
2021/07/13 01:55:51;;;;;;;10.50;9.50;;;18.20;99.90;;;;;;6057617;29;20628;-82
2021/07/13 01:58:54;;;;;;;9.70;8.80;;;18.10;99.90;;;;;;6058037;29;21001;-82
2021/07/13 02:02:00;;;;;;;10.17;9.17;;;18.10;99.90;;;;;;6057250;29;20194;-79
2021/07/13 02:05:05;;;;;;;11.13;10.13;;;18.10;99.90;;;;;;6058037;29;20253;-81
2021/07/13 02:08:09;;;;;;;11.30;10.17;;;18.10;99.90;;;;;;6041924;29;20201;-81
2021/07/13 02:11:12;;;;;;;11.13;10.00;;;18.10;99.90;;;;;;6057183;29;20212;-81
2021/07/13 02:14:15;;;;;;;12.47;9.63;;;18.00;99.90;;;;;;6058280;29;20277;-78
2021/07/13 02:17:17;;;;;;;11.47;10.37;;;18.00;99.90;;;;;;6058155;29;20213;-81
2021/07/13 02:20:21;;;;;;;12.23;11.13;;;17.90;99.90;;;;;;6056479;29;20193;-82
2021/07/13 02:23:23;;;;;;;12.73;11.43;;;17.90;99.90;;;;;;6056413;29;20547;-81
2021/07/13 02:26:43;;;;;;;12.27;11.07;;;17.90;99.90;;;;;;6056474;29;20197;-82
2021/07/13 02:29:52;;;;;;;10.17;9.20;;;18.00;99.90;;;;;;6041016;29;20194;-82
2021/07/13 02:33:02;;;;;;;10.77;9.83;;;18.00;99.90;;;;;;6056457;29;20563;-82
2021/07/13 02:36:11;;;;;;;11.10;10.07;;;18.00;99.90;;;;;;6055875;29;20313;-82
2021/07/13 02:39:15;;;;;;;13.20;11.93;;;18.00;99.90;;;;;;6056717;29;20634;-82
2021/07/13 02:42:18;;;;;;;16.50;14.57;;;17.90;99.90;;;;;;6040571;29;20576;-82
2021/07/13 02:45:21;;;;;;;13.23;11.83;;;17.90;99.90;;;;;;6056433;29;20200;-82
2021/07/13 02:48:25;;;;;;;15.60;14.10;;;17.80;99.90;;;;;;6056251;29;20220;-83
2021/07/13 02:51:29;;;;;;;12.80;11.50;;;17.70;99.90;;;;;;6055584;29;20208;-81
2021/07/13 02:54:32;;;;;;;12.90;11.50;;;17.70;99.90;;;;;;6040779;29;20308;-82
2021/07/13 02:57:36;;;;;;;11.30;10.30;;;17.60;99.90;;;;;;6056864;29;20213;-82
2021/07/13 03:00:38;;;;;;;32.30;26.77;;;17.60;99.90;;;;;;6056179;29;20200;-81
2021/07/13 03:03:42;;;;;;;16.50;14.80;;;17.60;99.90;;;;;;6055737;29;20217;-82
2021/07/13 03:06:45;;;;;;;14.13;12.70;;;17.50;99.90;;;;;;6056942;29;20189;-83
2021/07/13 03:09:49;;;;;;;12.43;11.23;;;17.50;99.90;;;;;;6055333;29;20646;-82
2021/07/13 03:12:53;;;;;;;14.77;13.27;;;17.60;99.90;;;;;;6055342;29;20225;-82
2021/07/13 03:15:55;;;;;;;135.20;88.53;;;17.70;99.90;;;;;;6055789;29;20193;-81
2021/07/13 03:18:59;;;;;;;38.53;29.63;;;17.80;99.90;;;;;;6055009;29;20262;-80
2021/07/13 03:22:03;;;;;;;55.33;37.17;;;17.90;99.90;;;;;;6055210;29;20583;-83
2021/07/13 03:25:09;;;;;;;46.30;37.70;;;18.00;99.90;;;;;;6056462;29;20532;-82
2021/07/13 03:28:14;;;;;;;24.07;19.33;;;18.10;99.90;;;;;;6056335;29;20214;-83
2021/07/13 03:31:16;;;;;;;21.37;16.60;;;18.20;99.90;;;;;;6056483;29;20681;-81
2021/07/13 03:34:19;;;;;;;16.83;14.13;;;18.30;99.90;;;;;;6039091;29;20312;-81
2021/07/13 03:37:22;;;;;;;13.90;12.50;;;18.30;99.90;;;;;;6054244;29;20202;-82
2021/07/13 03:40:27;;;;;;;13.70;12.20;;;18.40;99.90;;;;;;6054982;29;20197;-81
2021/07/13 03:43:29;;;;;;;12.27;11.17;;;18.50;99.90;;;;;;6054840;29;20574;-82
2021/07/13 03:46:35;;;;;;;11.67;10.57;;;18.60;99.90;;;;;;6055013;29;20281;-83
2021/07/13 03:49:39;;;;;;;12.10;10.93;;;18.60;99.90;;;;;;6054521;29;20205;-81
2021/07/13 03:52:42;;;;;;;11.03;10.00;;;18.70;99.90;;;;;;6055147;29;20574;-82
2021/07/13 03:55:45;;;;;;;10.97;9.97;;;18.70;99.90;;;;;;6054427;29;20254;-82
2021/07/13 03:58:47;;;;;;;11.97;10.97;;;18.80;99.90;;;;;;6054714;29;20213;-81
2021/07/13 04:01:49;;;;;;;12.70;11.43;;;18.90;99.90;;;;;;6054515;29;20201;-80
2021/07/13 04:04:52;;;;;;;11.97;10.77;;;18.90;99.90;;;;;;6054259;29;20653;-81
2021/07/13 04:07:56;;;;;;;11.13;10.13;;;19.00;99.90;;;;;;6054206;29;20288;-81
2021/07/13 04:10:58;;;;;;;11.47;10.47;;;19.10;99.90;;;;;;6039090;29;20678;-82
2021/07/13 04:14:00;;;;;;;12.07;10.87;;;19.20;99.90;;;;;;6054473;29;20201;-82
2021/07/13 04:17:03;;;;;;;12.17;10.90;;;19.20;99.90;;;;;;6054216;29;20204;-82
2021/07/13 04:20:08;;;;;;;10.80;9.80;;;19.30;99.90;;;;;;6053956;29;20272;-82
2021/07/13 04:23:10;;;;;;;10.50;9.60;;;19.40;99.90;;;;;;6038703;29;20204;-82
2021/07/13 04:26:12;;;;;;;11.33;10.33;;;19.40;99.90;;;;;;6038563;29;20233;-83
2021/07/13 04:29:15;;;;;;;11.43;10.33;;;19.50;99.90;;;;;;6054190;29;20197;-82
2021/07/13 04:32:18;;;;;;;10.80;9.80;;;19.60;99.90;;;;;;6053932;29;20304;-81
2021/07/13 04:35:20;;;;;;;11.00;10.00;;;19.60;99.90;;;;;;6053589;29;20697;-83
2021/07/13 04:38:23;;;;;;;11.87;10.70;;;19.70;99.90;;;;;;6038710;29;20622;-82
2021/07/13 04:41:25;;;;;;;15.33;13.70;;;19.80;99.90;;;;;;6054030;29;20197;-83
2021/07/13 04:44:27;;;;;;;13.43;12.20;;;19.90;99.90;;;;;;6053831;29;20201;-82
2021/07/13 04:47:30;;;;;;;12.77;11.57;;;20.00;99.90;;;;;;6056161;29;20211;-83
2021/07/13 04:50:34;;;;;;;13.20;12.03;;;20.10;99.90;;;;;;6062895;29;20729;-81
2021/07/13 04:53:36;;;;;;;13.30;12.00;;;20.10;99.90;;;;;;6062701;29;20237;-81
2021/07/13 04:56:39;;;;;;;14.57;13.00;;;20.20;99.90;;;;;;6045938;29;20608;-81
2021/07/13 04:59:41;;;;;;;19.83;17.93;;;20.30;99.90;;;;;;6062099;29;20708;-81
2021/07/13 05:02:44;;;;;;;18.57;16.57;;;20.40;99.90;;;;;;6062454;29;20638;-83
2021/07/13 05:05:47;;;;;;;18.77;16.93;;;20.40;99.90;;;;;;6061236;29;20545;-83
2021/07/13 05:08:49;;;;;;;16.83;15.17;;;20.50;99.90;;;;;;6061542;29;20197;-83
2021/07/13 05:11:51;;;;;;;20.80;18.60;;;20.60;99.90;;;;;;6062189;29;20276;-84
2021/07/13 05:14:54;;;;;;;18.47;16.60;;;20.70;99.90;;;;;;6061647;29;20330;-83
2021/07/13 05:17:57;;;;;;;18.00;15.77;;;20.70;99.90;;;;;;6060937;29;20228;-81
2021/07/13 05:21:03;;;;;;;18.20;16.40;;;20.80;99.90;;;;;;6061297;29;20205;-82
2021/07/13 05:24:05;;;;;;;16.77;15.17;;;20.90;99.90;;;;;;6061449;29;20537;-83
2021/07/13 05:27:11;;;;;;;19.30;17.30;;;21.00;99.90;;;;;;6060980;29;20571;-82
2021/07/13 05:30:16;;;;;;;19.03;17.07;;;21.10;99.90;;;;;;6045929;29;20284;-81
2021/07/13 05:33:19;;;;;;;18.43;16.63;;;21.10;99.90;;;;;;6060820;29;20225;-82
2021/07/13 05:36:21;;;;;;;19.67;17.77;;;21.10;99.90;;;;;;6062076;29;20708;-83
2021/07/13 05:39:23;;;;;;;18.33;16.53;;;21.20;99.90;;;;;;6060798;29;20723;-83
2021/07/13 05:42:26;;;;;;;18.07;16.17;;;21.20;99.90;;;;;;6061209;29;20193;-82
2021/07/13 05:45:28;;;;;;;18.83;17.07;;;21.20;99.90;;;;;;6062319;29;20201;-82
2021/07/13 05:48:31;;;;;;;17.93;16.23;;;21.30;99.90;;;;;;6045617;29;20542;-83
2021/07/13 05:51:33;;;;;;;17.43;15.83;;;21.40;99.90;;;;;;6045649;29;20208;-82
2021/07/13 05:54:36;;;;;;;15.77;14.30;;;21.40;99.90;;;;;;6061899;29;20818;-83
2021/07/13 05:57:42;;;;;;;17.47;15.77;;;21.50;99.90;;;;;;6061034;29;20238;-83
2021/07/13 06:00:46;;;;;;;16.20;14.60;;;21.60;99.90;;;;;;6056593;29;20261;-82
2021/07/13 06:03:48;;;;;;;19.23;17.17;;;21.70;99.90;;;;;;6058172;29;20205;-84
2021/07/13 06:06:50;;;;;;;18.10;16.40;;;21.80;99.90;;;;;;6057483;29;20276;-83
2021/07/13 06:09:54;;;;;;;16.87;15.27;;;21.80;99.90;;;;;;6058194;29;20338;-83
2021/07/13 06:12:56;;;;;;;17.73;16.03;;;22.00;99.90;;;;;;6041721;29;20257;-82
2021/07/13 06:15:59;;;;;;;17.63;15.80;;;22.00;99.90;;;;;;6041846;29;20201;-83
2021/07/13 06:19:01;;;;;;;17.00;15.27;;;22.10;99.90;;;;;;6041268;29;20221;-83
2021/07/13 06:22:05;;;;;;;15.93;14.43;;;22.20;99.90;;;;;;6056758;29;20249;-82
2021/07/13 06:25:09;;;;;;;15.00;13.60;;;22.20;99.90;;;;;;6056931;29;20216;-82
2021/07/13 06:28:11;;;;;;;17.73;15.23;;;22.20;99.90;;;;;;6056847;29;20570;-81
2021/07/13 06:31:13;;;;;;;15.20;13.70;;;22.20;99.90;;;;;;6056574;29;20217;-83
2021/07/13 06:34:16;;;;;;;16.47;14.97;;;22.10;99.90;;;;;;6056325;29;20720;-82
2021/07/13 06:37:18;;;;;;;15.60;14.10;;;22.10;99.90;;;;;;6038294;29;20294;-81
2021/07/13 06:40:20;;;;;;;14.77;13.47;;;22.00;99.90;;;;;;6033485;29;20697;-81
2021/07/13 06:43:23;;;;;;;15.80;12.67;;;22.20;99.90;;;;;;6033455;29;20214;-83
2021/07/13 06:46:25;;;;;;;14.80;13.40;;;22.40;99.90;;;;;;6033137;29;20198;-82
2021/07/13 06:49:28;;;;;;;14.73;13.37;;;22.50;99.90;;;;;;6034352;29;20194;-83
2021/07/13 06:52:30;;;;;;;13.47;12.27;;;22.60;99.90;;;;;;6034370;29;20682;-83
2021/07/13 06:55:33;;;;;;;12.67;11.47;;;22.70;99.90;;;;;;6033035;29;20678;-83
2021/07/13 06:58:35;;;;;;;12.70;11.50;;;22.90;99.90;;;;;;6033093;29;20206;-82
2021/07/13 07:01:37;;;;;;;11.77;10.73;;;23.10;99.90;;;;;;6033829;29;20202;-81
2021/07/13 07:04:40;;;;;;;14.17;12.73;;;23.40;99.90;;;;;;6049268;29;20202;-82
2021/07/13 07:07:50;;;;;;;13.80;12.50;;;23.40;99.90;;;;;;6018395;29;20289;-83
2021/07/13 07:10:53;;;;;;;16.20;13.53;;;23.60;99.90;;;;;;6033203;29;20206;-83
2021/07/13 07:13:55;;;;;;;12.10;10.20;;;23.70;99.90;;;;;;6017916;29;20212;-84
2021/07/13 07:16:57;;;;;;;13.67;11.23;;;23.80;99.90;;;;;;6017519;29;20217;-83
2021/07/13 07:20:01;;;;;;;12.53;11.47;;;24.00;99.90;;;;;;6048337;29;20791;-83
2021/07/13 07:23:04;;;;;;;12.50;11.40;;;24.20;99.90;;;;;;6033886;29;20217;-84
2021/07/13 07:26:06;;;;;;;12.47;11.27;;;24.20;99.90;;;;;;6032945;29;20770;-84
2021/07/13 07:29:08;;;;;;;12.47;11.17;;;24.20;99.90;;;;;;6033103;29;20244;-84
2021/07/13 07:32:11;;;;;;;14.10;12.70;;;24.30;99.90;;;;;;6044353;29;20232;-83
2021/07/13 07:35:14;;;;;;;13.37;11.97;;;24.40;99.90;;;;;;6053142;29;20633;-83
2021/07/13 07:38:16;;;;;;;14.73;12.90;;;24.50;99.90;;;;;;6032201;29;20304;-84
2021/07/13 07:41:20;;;;;;;14.80;13.30;;;24.80;99.90;;;;;;6034313;29;20202;-82
2021/07/13 07:44:23;;;;;;;11.93;10.73;;;25.00;99.90;;;;;;6033726;29;20202;-84
2021/07/13 07:47:26;;;;;;;11.50;10.40;;;25.10;99.90;;;;;;6032186;29;20198;-84
2021/07/13 07:50:29;;;;;;;12.05;10.82;;;25.40;99.90;;;;;;6033630;29;20528;-83
2021/07/13 07:53:31;;;;;;;11.77;10.63;;;25.50;99.90;;;;;;6031957;29;20222;-84
2021/07/13 07:56:34;;;;;;;10.57;9.38;;;25.70;99.90;;;;;;6033407;29;20552;-84
2021/07/13 07:59:37;;;;;;;11.82;10.73;;;26.00;99.90;;;;;;6033740;29;20246;-84
2021/07/13 08:02:40;;;;;;;10.23;9.43;;;26.20;99.90;;;;;;6031401;29;20553;-84
2021/07/13 08:05:43;;;;;;;9.20;8.48;;;26.40;99.90;;;;;;6055209;29;20254;-83
2021/07/13 08:08:45;;;;;;;9.98;9.07;;;26.80;99.90;;;;;;6055026;29;20664;-83
2021/07/13 08:11:48;;;;;;;9.73;8.82;;;27.20;99.90;;;;;;6055108;29;20201;-84
2021/07/13 08:14:51;;;;;;;10.27;9.10;;;27.50;99.90;;;;;;6054907;29;20284;-84
2021/07/13 08:17:54;;;;;;;11.27;10.27;;;27.80;99.90;;;;;;6056752;29;20189;-84
2021/07/13 08:20:59;;;;;;;11.45;10.25;;;27.70;99.10;;;;;;6054836;29;20208;-83
2021/07/13 08:24:01;;;;;;;10.52;9.50;;;27.80;98.90;;;;;;6054223;29;20559;-85
2021/07/13 08:27:08;;;;;;;11.43;10.20;;;27.90;98.60;;;;;;6055898;29;20197;-82
2021/07/13 08:30:11;;;;;;;9.70;8.80;;;28.00;98.10;;;;;;6054474;29;20570;-84
2021/07/13 08:33:13;;;;;;;10.73;9.50;;;28.20;98.20;;;;;;6056321;29;20638;-84
2021/07/13 08:36:16;;;;;;;11.45;10.27;;;28.40;96.70;;;;;;6056172;29;20315;-85
2021/07/13 08:39:18;;;;;;;10.60;9.30;;;28.30;96.00;;;;;;6056396;29;20544;-80
2021/07/13 08:42:21;;;;;;;11.73;9.77;;;28.30;95.80;;;;;;6054841;29;20189;-82
2021/07/13 08:45:24;;;;;;;10.05;9.13;;;28.50;95.80;;;;;;6056153;29;20198;-83
2021/07/13 08:48:27;;;;;;;9.40;8.40;;;28.80;95.80;;;;;;6054924;29;20261;-84
2021/07/13 08:51:29;;;;;;;9.98;8.98;;;29.10;95.20;;;;;;6054875;29;20201;-84
2021/07/13 08:54:34;;;;;;;13.18;8.98;;;29.50;94.30;;;;;;6054543;29;20284;-84
2021/07/13 08:57:41;;;;;;;8.88;8.18;;;29.90;93.60;;;;;;6054621;29;20198;-85
2021/07/13 09:00:43;;;;;;;10.93;8.88;;;30.00;92.90;;;;;;6055180;29;20233;-83
2021/07/13 09:03:57;;;;;;;12.43;9.77;;;29.90;92.40;;;;;;6058436;29;20201;-83
2021/07/13 09:06:59;;;;;;;9.75;8.85;;;29.90;91.50;;;;;;6055504;29;20198;-84
2021/07/13 09:10:04;;;;;;;10.43;9.27;;;30.00;92.50;;;;;;6057278;29;20229;-84
2021/07/13 09:13:07;;;;;;;10.00;9.13;;;30.20;90.90;;;;;;6059854;29;20256;-83
2021/07/13 09:16:14;;;;;;;9.77;8.55;;;30.20;90.00;;;;;;6059862;29;20725;-83
2021/07/13 09:19:17;;;;;;;9.20;8.30;;;30.10;90.80;;;;;;6058263;29;20232;-85
2021/07/13 09:22:22;;;;;;;8.55;7.88;;;30.00;90.80;;;;;;6054774;29;20206;-83
2021/07/13 09:25:28;;;;;;;9.68;8.75;;;30.10;91.40;;;;;;6056834;29;20174;-83
2021/07/13 09:28:31;;;;;;;8.70;7.68;;;30.60;90.70;;;;;;6056279;29;20194;-83
2021/07/13 09:31:33;;;;;;;8.63;7.72;;;31.00;90.50;;;;;;6054666;29;20205;-85
2021/07/13 09:34:36;;;;;;;8.45;7.65;;;31.50;90.30;;;;;;6056541;29;20257;-85
2021/07/13 09:37:48;;;;;;;8.18;7.43;;;31.90;88.30;;;;;;6059528;29;20201;-84
2021/07/13 09:41:02;;;;;;;7.95;7.25;;;32.30;85.30;;;;;;6060498;29;20277;-85
2021/07/13 09:44:05;;;;;;;10.75;7.32;;;32.70;83.90;;;;;;6046436;29;20354;-84
2021/07/13 09:47:10;;;;;;;8.02;7.32;;;32.80;76.60;;;;;;6064355;29;20194;-84
2021/07/13 09:50:28;;;;;;;9.65;7.40;;;32.50;76.40;;;;;;6062986;29;20706;-83
2021/07/13 09:53:31;;;;;;;7.93;7.22;;;32.40;77.10;;;;;;6063476;29;20189;-84
2021/07/13 09:56:45;;;;;;;7.78;7.10;;;32.40;77.10;;;;;;6064979;29;20222;-84
2021/07/13 09:59:50;;;;;;;8.20;6.90;;;32.60;77.40;;;;;;6046994;29;20361;-85
2021/07/13 10:02:53;;;;;;;8.10;7.22;;;32.70;74.60;;;;;;6066925;29;20206;-83
2021/07/13 10:05:58;;;;;;;7.75;6.95;;;33.00;71.80;;;;;;6081377;29;20194;-85
2021/07/13 10:09:01;;;;;;;7.28;6.57;;;33.00;71.00;;;;;;6060919;29;20681;-84
2021/07/13 10:12:09;;;;;;;12.30;6.30;;;33.20;70.50;;;;;;6048119;29;20641;-85
2021/07/13 10:15:11;;;;;;;7.63;6.82;;;33.50;71.60;;;;;;6061003;29;20198;-86
2021/07/13 10:18:15;;;;;;;7.28;6.57;;;33.70;69.70;;;;;;6082333;29;20213;-84
2021/07/13 10:21:18;;;;;;;6.40;5.80;;;33.80;65.70;;;;;;6063836;29;20222;-84
2021/07/13 10:24:25;;;;;;;8.60;6.10;;;33.90;65.70;;;;;;6058551;29;20197;-85
2021/07/13 10:27:32;;;;;;;7.10;6.28;;;34.40;70.70;;;;;;6063276;29;20234;-85
2021/07/13 10:30:42;;;;;;;7.35;6.65;;;34.90;64.40;;;;;;6066655;29;20204;-85
2021/07/13 10:33:45;;;;;;;11.10;6.35;;;34.90;60.90;;;;;;6063733;29;20213;-85
2021/07/13 10:36:47;;;;;;;8.30;6.65;;;34.60;60.50;;;;;;6062681;29;20605;-84
2021/07/13 10:39:51;;;;;;;8.63;6.28;;;34.60;60.70;;;;;;6060541;29;20698;-84
2021/07/13 10:42:58;;;;;;;6.95;6.22;;;34.70;61.70;;;;;;6062348;29;20202;-84
2021/07/13 10:46:08;;;;;;;6.93;6.25;;;34.70;62.20;;;;;;6073121;29;20178;-84
2021/07/13 10:49:17;;;;;;;6.50;5.85;;;35.00;65.80;;;;;;6061800;29;20190;-84
2021/07/13 10:52:52;;;;;;;7.57;5.88;;;35.40;60.20;;;;;;6061571;29;20193;-83
2021/07/13 10:55:58;;;;;;;8.98;5.85;;;35.70;58.30;;;;;;6059816;29;20198;-85
2021/07/13 10:59:20;;;;;;;6.03;5.43;;;35.90;57.80;;;;;;6063196;29;20202;-84
2021/07/13 11:02:23;;;;;;;7.30;5.95;;;35.90;57.70;;;;;;6063967;29;20209;-86
2021/07/13 11:05:44;;;;;;;6.75;5.75;;;36.00;55.30;;;;;;6060700;29;20350;-85
2021/07/13 11:08:52;;;;;;;8.13;5.53;;;36.10;54.10;;;;;;6065245;29;20225;-84
2021/07/13 11:12:08;;;;;;;6.90;5.40;;;36.10;55.20;;;;;;6063798;29;20190;-84
2021/07/13 11:15:10;;;;;;;6.15;5.47;;;36.30;54.40;;;;;;6060295;29;20229;-84
2021/07/13 11:18:24;;;;;;;10.10;6.38;;;36.40;53.00;;;;;;6060068;29;20209;-84
2021/07/13 11:21:30;;;;;;;8.80;5.53;;;36.60;51.70;;;;;;6061906;29;20261;-85
2021/07/13 11:24:34;;;;;;;7.75;5.60;;;36.80;51.60;;;;;;6056794;29;20255;-86
2021/07/13 11:27:36;;;;;;;6.80;5.50;;;37.30;52.50;;;;;;6059434;29;20292;-85
2021/07/13 11:30:39;;;;;;;11.23;5.20;;;37.90;52.40;;;;;;6045972;29;20249;-86
2021/07/13 11:33:41;;;;;;;7.30;5.47;;;38.30;50.40;;;;;;6061717;29;20209;-83
2021/07/13 11:36:52;;;;;;;8.68;5.00;;;38.50;50.00;;;;;;6066566;29;20233;-84
2021/07/13 11:40:01;;;;;;;6.28;4.78;;;38.10;48.10;;;;;;6061551;29;20197;-85
2021/07/13 11:43:03;;;;;;;5.10;4.28;;;38.20;50.00;;;;;;6059151;29;20190;-85
2021/07/13 11:46:23;;;;;;;9.98;4.45;;;38.40;46.10;;;;;;6062529;29;20204;-85
2021/07/13 11:49:28;;;;;;;18.25;5.03;;;38.50;43.20;;;;;;6061620;29;20197;-83
2021/07/13 11:52:31;;;;;;;7.35;4.32;;;38.50;42.30;;;;;;6061158;29;20650;-84
2021/07/13 11:55:33;;;;;;;13.43;4.25;;;38.60;44.50;;;;;;6045570;29;20208;-84
2021/07/13 11:58:36;;;;;;;11.73;4.63;;;38.90;44.40;;;;;;6047098;29;20210;-84
2021/07/13 12:01:39;;;;;;;9.27;4.07;;;38.90;42.30;;;;;;6061131;29;20217;-85
2021/07/13 12:04:48;;;;;;;8.40;4.47;;;38.80;44.60;;;;;;6059072;29;20193;-85
2021/07/13 12:07:50;;;;;;;10.65;4.13;;;39.00;42.10;;;;;;6057627;29;20194;-84
2021/07/13 12:10:53;;;;;;;13.18;4.57;;;39.20;43.20;;;;;;6057723;29;20193;-85
2021/07/13 12:13:57;;;;;;;7.63;4.05;;;39.50;42.60;;;;;;6060498;29;20212;-86
2021/07/13 12:17:00;;;;;;;10.40;4.50;;;39.40;42.00;;;;;;6058996;29;20644;-80
2021/07/13 12:20:03;;;;;;;9.60;4.35;;;39.40;41.50;;;;;;6060281;29;20601;-82
2021/07/13 12:23:06;;;;;;;13.50;4.97;;;39.30;41.60;;;;;;6062195;29;20201;-83
2021/07/13 12:26:27;;;;;;;8.57;3.97;;;38.80;41.40;;;;;;6044832;29;20201;-86
2021/07/13 12:29:32;;;;;;;6.43;4.00;;;38.60;43.00;;;;;;6059434;29;20206;-84
2021/07/13 12:32:34;;;;;;;8.20;4.20;;;38.60;41.60;;;;;;6061555;29;20209;-83
2021/07/13 12:35:37;;;;;;;6.93;3.42;;;38.60;42.00;;;;;;6061215;29;20736;-83
2021/07/13 12:38:39;;;;;;;6.95;3.90;;;38.50;42.20;;;;;;6061113;29;20701;-83
2021/07/13 12:41:45;;;;;;;7.07;3.85;;;38.40;41.80;;;;;;6062329;29;20222;-82
2021/07/13 12:44:48;;;;;;;11.27;3.80;;;38.80;42.30;;;;;;6058795;29;20193;-83
2021/07/13 12:47:54;;;;;;;7.10;3.72;;;39.20;42.20;;;;;;6061099;29;20201;-85
2021/07/13 12:50:58;;;;;;;9.43;3.92;;;39.20;40.70;;;;;;6059630;29;20190;-83
2021/07/13 12:54:08;;;;;;;9.73;3.55;;;38.80;41.00;;;;;;6059181;29;20293;-81
2021/07/13 12:57:34;;;;;;;9.38;3.65;;;38.50;41.70;;;;;;6043798;29;20221;-83
2021/07/13 13:00:45;;;;;;;9.27;3.75;;;38.40;42.10;;;;;;6057188;29;20209;-84
2021/07/13 13:03:48;;;;;;;5.82;3.50;;;38.30;41.80;;;;;;6035881;29;20178;-83
2021/07/13 13:06:50;;;;;;;7.05;3.38;;;38.00;41.70;;;;;;6033111;29;20198;-83
2021/07/13 13:09:53;;;;;;;9.27;3.90;;;38.20;41.60;;;;;;6037722;29;20575;-84
2021/07/13 13:12:55;;;;;;;7.07;3.40;;;38.40;42.80;;;;;;6021816;29;20266;-84
2021/07/13 13:16:03;;;;;;;6.40;3.63;;;38.70;41.50;;;;;;6039149;29;20206;-82
2021/07/13 13:19:07;;;;;;;8.02;3.40;;;38.60;41.60;;;;;;6038621;29;20206;-84
2021/07/13 13:22:10;;;;;;;6.00;3.22;;;38.60;41.50;;;;;;6023238;29;20221;-83
2021/07/13 13:25:12;;;;;;;10.10;3.08;;;38.80;41.60;;;;;;6037303;29;20280;-83
2021/07/13 13:28:16;;;;;;;5.25;3.13;;;39.00;41.70;;;;;;6038869;29;20201;-83
2021/07/13 13:31:19;;;;;;;7.63;3.33;;;38.80;42.30;;;;;;6038317;29;20224;-84
2021/07/13 13:34:23;;;;;;;6.10;3.22;;;38.80;41.00;;;;;;6021534;29;20366;-82
2021/07/13 13:37:26;;;;;;;6.07;3.42;;;39.00;41.50;;;;;;6037869;29;20214;-84
2021/07/13 13:40:29;;;;;;;10.10;3.72;;;39.10;40.60;;;;;;6045393;29;20571;-83
2021/07/13 13:43:32;;;;;;;8.18;3.42;;;38.80;40.90;;;;;;6045566;29;20664;-84
2021/07/13 13:46:35;;;;;;;11.43;3.70;;;38.30;40.80;;;;;;6060717;29;20246;-84
2021/07/13 13:49:37;;;;;;;8.82;3.58;;;37.70;41.30;;;;;;6059390;29;20201;-82
2021/07/13 13:52:39;;;;;;;8.98;3.70;;;37.30;41.80;;;;;;6060912;29;20205;-83
2021/07/13 13:55:42;;;;;;;6.68;3.85;;;36.80;42.00;;;;;;6060710;29;20217;-84
2021/07/13 13:58:44;;;;;;;7.72;3.75;;;36.50;43.10;;;;;;6059848;29;20205;-83
2021/07/13 14:01:46;;;;;;;7.20;3.63;;;36.40;42.80;;;;;;6060449;29;20717;-83
2021/07/13 14:04:48;;;;;;;6.20;3.55;;;36.30;42.80;;;;;;6060069;29;20197;-83
2021/07/13 14:07:51;;;;;;;6.47;3.88;;;36.50;42.70;;;;;;6059378;29;20208;-84
2021/07/13 14:10:53;;;;;;;6.05;3.63;;;36.80;42.50;;;;;;6060491;29;20190;-82
2021/07/13 14:13:56;;;;;;;8.48;3.85;;;37.40;41.60;;;;;;6043180;29;20212;-82
2021/07/13 14:16:59;;;;;;;6.10;3.10;;;37.70;41.20;;;;;;6058122;29;20204;-83
2021/07/13 14:20:01;;;;;;;6.20;3.28;;;37.90;41.00;;;;;;6057143;29;20220;-83
2021/07/13 14:23:03;;;;;;;6.07;3.70;;;38.40;40.70;;;;;;6060602;29;20193;-84
2021/07/13 14:26:05;;;;;;;7.13;2.97;;;38.90;41.10;;;;;;6058056;29;20197;-83
2021/07/13 14:29:08;;;;;;;8.30;3.55;;;39.40;39.80;;;;;;6061228;29;20197;-83
2021/07/13 14:32:10;;;;;;;6.90;3.15;;;39.20;39.50;;;;;;6058544;29;20213;-84
2021/07/13 14:35:13;;;;;;;7.30;3.58;;;39.00;39.60;;;;;;6057640;29;20276;-84
2021/07/13 14:38:15;;;;;;;7.15;3.17;;;39.30;39.50;;;;;;6057769;29;20201;-83
2021/07/13 14:41:19;;;;;;;7.97;3.53;;;39.10;39.50;;;;;;6057694;29;20229;-84
2021/07/13 14:44:21;;;;;;;4.68;2.88;;;38.90;39.60;;;;;;6058515;29;20203;-81
2021/07/13 14:47:23;;;;;;;9.20;3.70;;;38.40;40.00;;;;;;6057173;29;20193;-82
2021/07/13 14:50:26;;;;;;;7.10;3.28;;;38.00;40.20;;;;;;6042182;29;20220;-84
2021/07/13 14:53:29;;;;;;;9.95;3.50;;;37.80;40.90;;;;;;6041768;29;20204;-82
2021/07/13 14:56:31;;;;;;;3.72;3.15;;;37.90;40.90;;;;;;6057249;29;20277;-83
2021/07/13 14:59:34;;;;;;;10.73;3.42;;;38.10;40.60;;;;;;6057059;29;20201;-82
2021/07/13 15:02:36;;;;;;;5.93;3.40;;;38.40;40.70;;;;;;6057404;29;20256;-83
2021/07/13 15:05:39;;;;;;;7.15;3.58;;;38.30;40.40;;;;;;6042745;29;20205;-84
2021/07/13 15:08:41;;;;;;;6.10;3.20;;;37.70;41.60;;;;;;6059841;29;20198;-83
2021/07/13 15:11:44;;;;;;;12.27;3.80;;;36.90;42.00;;;;;;6042610;29;20209;-83
2021/07/13 15:14:46;;;;;;;6.80;3.30;;;36.40;42.60;;;;;;6057437;29;20212;-83
2021/07/13 15:17:50;;;;;;;8.18;3.67;;;36.00;42.70;;;;;;6058817;29;20309;-83
2021/07/13 15:20:52;;;;;;;7.43;2.80;;;35.60;43.50;;;;;;6059814;29;20259;-84
2021/07/13 15:23:55;;;;;;;5.40;2.88;;;35.60;43.80;;;;;;6058668;29;20562;-83
2021/07/13 15:26:57;;;;;;;9.57;3.22;;;36.00;43.60;;;;;;6057007;29;20612;-83
2021/07/13 15:29:59;;;;;;;7.07;2.95;;;36.80;42.70;;;;;;6059373;29;20193;-84
2021/07/13 15:33:05;;;;;;;4.30;2.58;;;37.20;42.30;;;;;;6058510;29;20240;-81
2021/07/13 15:36:07;;;;;;;6.10;3.08;;;37.30;42.50;;;;;;6058929;29;20282;-84
2021/07/13 15:39:09;;;;;;;7.05;3.30;;;36.90;43.20;;;;;;6056241;29;20571;-83
2021/07/13 15:42:12;;;;;;;6.75;3.10;;;36.30;43.50;;;;;;6057717;29;20229;-83
2021/07/13 15:45:14;;;;;;;6.15;3.17;;;35.30;43.90;;;;;;6060437;29;20205;-84
2021/07/13 15:48:17;;;;;;;6.20;3.10;;;34.60;45.00;;;;;;6058795;29;20192;-83